Time;durP1;ratioP1;P1;durP2;ratioP2;P2;SDS_P1;SDS_P2;PMS_P1;PMS_P2;Temp;Humidity;BMP_temperature;BMP_pressure;BME280_temperature;BME280_humidity;BME280_pressure;Samples;Min_cycle;Max_cycle;Signal;HPM_P1;HPM_P2
2023/05/16 00:02:18;;;;;;;17.08;2.38;;;11.90;99.90;;;;;;4997144;28;20332;-76
2023/05/16 00:04:44;;;;;;;15.75;2.28;;;12.00;99.90;;;;;;4997275;28;20045;-76
2023/05/16 00:07:11;;;;;;;23.30;2.30;;;11.90;99.90;;;;;;4980018;28;20055;-76
2023/05/16 00:09:37;;;;;;;23.23;2.42;;;11.80;99.90;;;;;;4997140;28;20050;-76
2023/05/16 00:12:03;;;;;;;22.52;2.45;;;11.80;99.90;;;;;;4997188;28;20038;-76
2023/05/16 00:14:29;;;;;;;20.10;2.38;;;11.80;99.90;;;;;;4997043;28;20053;-76
2023/05/16 00:16:57;;;;;;;15.80;1.65;;;11.70;99.90;;;;;;4997275;28;20045;-77
2023/05/16 00:19:23;;;;;;;17.15;1.80;;;11.80;99.90;;;;;;4996691;28;20050;-76
2023/05/16 00:21:48;;;;;;;15.20;2.10;;;11.80;99.90;;;;;;4997097;28;20097;-77
2023/05/16 00:24:14;;;;;;;15.32;2.33;;;11.90;99.90;;;;;;4979897;28;20042;-76
2023/05/16 00:26:40;;;;;;;21.88;2.33;;;11.70;99.90;;;;;;4996709;28;20046;-76
2023/05/16 00:29:05;;;;;;;19.40;2.05;;;11.60;99.90;;;;;;4996987;28;20041;-76
2023/05/16 00:31:31;;;;;;;14.35;2.00;;;11.60;99.90;;;;;;4996859;28;20077;-76
2023/05/16 00:33:57;;;;;;;19.27;2.08;;;11.60;99.90;;;;;;4997094;28;20088;-76
2023/05/16 00:36:23;;;;;;;19.77;2.45;;;11.70;99.90;;;;;;4979579;28;20061;-76
2023/05/16 00:38:48;;;;;;;14.23;1.73;;;11.80;99.90;;;;;;4996950;28;20129;-76
2023/05/16 00:41:15;;;;;;;15.55;1.85;;;11.70;99.90;;;;;;4996761;28;20039;-76
2023/05/16 00:43:41;;;;;;;18.27;1.92;;;11.60;99.90;;;;;;4996742;28;20064;-76
2023/05/16 00:46:06;;;;;;;12.80;2.20;;;11.60;99.90;;;;;;4996723;28;20050;-76
2023/05/16 00:48:32;;;;;;;17.40;2.70;;;11.60;99.90;;;;;;4977514;28;20103;-76
2023/05/16 00:50:59;;;;;;;19.75;1.80;;;11.60;99.90;;;;;;4980984;28;20055;-76
2023/05/16 00:53:25;;;;;;;20.42;2.50;;;11.70;99.90;;;;;;4980318;28;20047;-76
2023/05/16 00:55:51;;;;;;;13.45;1.90;;;11.60;99.90;;;;;;4981285;28;20118;-76
2023/05/16 00:58:18;;;;;;;19.35;1.90;;;11.60;99.90;;;;;;4981191;28;20087;-76
2023/05/16 01:00:46;;;;;;;17.23;2.60;;;11.50;99.90;;;;;;4981346;28;20039;-76
2023/05/16 01:03:12;;;;;;;17.45;1.80;;;11.50;99.90;;;;;;4981209;28;20042;-76
2023/05/16 01:05:38;;;;;;;17.42;2.42;;;11.30;99.90;;;;;;4980980;28;20046;-76
2023/05/16 01:08:03;;;;;;;19.23;2.13;;;11.20;99.90;;;;;;4981202;28;20364;-76
2023/05/16 01:10:45;;;;;;;22.60;1.85;;;11.20;99.90;;;;;;4980620;28;20360;-77
2023/05/16 01:13:30;;;;;;;18.05;1.80;;;11.20;99.90;;;;;;4980995;28;20136;-76
2023/05/16 01:16:09;;;;;;;15.15;1.92;;;11.20;99.90;;;;;;4980784;28;20047;-76
2023/05/16 01:18:53;;;;;;;15.65;1.55;;;11.10;99.90;;;;;;4980988;28;20043;-76
2023/05/16 01:21:37;;;;;;;17.52;2.03;;;11.10;99.90;;;;;;4980152;28;20043;-76
2023/05/16 01:24:12;;;;;;;12.85;1.83;;;11.20;99.90;;;;;;4980505;28;20042;-76
2023/05/16 01:26:40;;;;;;;16.17;2.50;;;11.20;99.90;;;;;;4979489;28;20035;-76
2023/05/16 01:29:06;;;;;;;11.23;1.73;;;11.00;99.90;;;;;;4980573;28;20089;-76
2023/05/16 01:31:32;;;;;;;17.30;1.75;;;11.00;99.90;;;;;;4980679;28;20049;-76
2023/05/16 01:33:58;;;;;;;18.30;1.90;;;11.10;99.90;;;;;;4980450;28;20046;-76
2023/05/16 01:36:26;;;;;;;16.15;1.80;;;11.20;99.90;;;;;;4979499;28;20074;-76
2023/05/16 01:38:58;;;;;;;14.50;1.80;;;11.20;99.90;;;;;;4980369;28;20355;-76
2023/05/16 01:41:51;;;;;;;12.73;1.38;;;11.10;99.90;;;;;;4980152;28;20047;-76
2023/05/16 01:44:30;;;;;;;12.82;1.63;;;11.10;99.90;;;;;;4980468;28;20038;-76
2023/05/16 01:46:59;;;;;;;10.73;1.88;;;11.20;99.90;;;;;;4979259;28;20042;-76
2023/05/16 01:49:34;;;;;;;17.52;1.98;;;11.10;99.90;;;;;;4990193;28;20082;-76
2023/05/16 01:52:06;;;;;;;13.50;2.38;;;11.30;99.90;;;;;;4999387;28;20049;-77
2023/05/16 01:54:36;;;;;;;12.63;2.10;;;11.30;99.90;;;;;;4999710;28;20042;-76
2023/05/16 01:57:03;;;;;;;10.70;1.58;;;11.30;99.90;;;;;;4999531;28;20420;-76
2023/05/16 01:59:30;;;;;;;12.85;1.27;;;11.20;99.90;;;;;;4998739;28;20077;-76
2023/05/16 02:01:56;;;;;;;17.35;1.83;;;11.20;99.90;;;;;;4999253;28;20338;-76
2023/05/16 02:04:23;;;;;;;10.93;1.45;;;11.10;99.90;;;;;;4999378;28;20038;-76
2023/05/16 02:06:49;;;;;;;12.77;1.95;;;11.00;99.90;;;;;;4999285;28;20042;-76
2023/05/16 02:09:15;;;;;;;22.58;2.10;;;11.10;99.90;;;;;;4999233;28;20396;-76
2023/05/16 02:11:41;;;;;;;13.90;1.60;;;11.10;99.90;;;;;;4999281;28;20070;-76
2023/05/16 02:14:06;;;;;;;15.43;1.50;;;11.00;99.90;;;;;;4999318;28;20081;-76
2023/05/16 02:16:33;;;;;;;12.77;1.75;;;11.00;99.90;;;;;;4981778;28;20046;-76
2023/05/16 02:18:58;;;;;;;17.45;1.85;;;11.10;99.90;;;;;;4999045;28;20047;-77
2023/05/16 02:21:24;;;;;;;17.13;1.42;;;11.00;99.90;;;;;;4981259;28;20046;-76
2023/05/16 02:23:50;;;;;;;12.55;1.52;;;11.00;99.90;;;;;;4999301;28;20042;-76
2023/05/16 02:26:15;;;;;;;9.15;1.63;;;11.10;99.90;;;;;;4999066;28;20439;-76
2023/05/16 02:28:41;;;;;;;11.30;1.65;;;11.10;99.90;;;;;;4998690;28;20038;-77
2023/05/16 02:31:07;;;;;;;12.15;1.80;;;11.20;99.90;;;;;;4998754;28;20048;-76
2023/05/16 02:33:33;;;;;;;17.10;2.40;;;11.20;99.90;;;;;;4998911;28;20077;-76
2023/05/16 02:35:59;;;;;;;17.27;2.03;;;11.30;99.90;;;;;;4998645;28;20340;-77
2023/05/16 02:38:25;;;;;;;23.10;2.50;;;11.30;99.90;;;;;;4998718;28;20049;-76
2023/05/16 02:40:50;;;;;;;16.58;2.28;;;11.20;99.90;;;;;;4981468;28;20050;-76
2023/05/16 02:43:16;;;;;;;13.55;1.45;;;11.10;99.90;;;;;;4998575;28;20070;-76
2023/05/16 02:45:42;;;;;;;19.10;1.90;;;11.20;99.90;;;;;;4998696;28;20038;-76
2023/05/16 02:48:07;;;;;;;16.52;2.35;;;11.10;99.90;;;;;;4998645;28;20446;-76
2023/05/16 02:50:33;;;;;;;16.10;1.95;;;11.20;99.90;;;;;;4964409;28;20054;-76
2023/05/16 02:53:01;;;;;;;20.58;2.15;;;11.30;99.90;;;;;;4998621;28;20042;-76
2023/05/16 02:55:27;;;;;;;16.35;2.08;;;11.20;99.90;;;;;;4998409;28;20046;-76
2023/05/16 02:57:53;;;;;;;10.98;1.23;;;11.10;99.90;;;;;;4998589;28;20328;-76
2023/05/16 03:00:19;;;;;;;15.32;1.77;;;11.10;99.90;;;;;;4998306;28;20042;-76
2023/05/16 03:02:45;;;;;;;16.27;1.80;;;11.10;99.90;;;;;;4998475;28;20390;-76
2023/05/16 03:05:11;;;;;;;13.25;1.80;;;11.10;99.90;;;;;;4980977;28;20127;-76
2023/05/16 03:07:38;;;;;;;15.02;1.90;;;11.10;99.90;;;;;;4998080;28;20050;-77
2023/05/16 03:10:04;;;;;;;20.63;2.40;;;11.10;99.90;;;;;;4998258;28;20046;-76
2023/05/16 03:12:30;;;;;;;17.95;2.05;;;11.10;99.90;;;;;;4997933;28;20038;-76
2023/05/16 03:14:55;;;;;;;15.90;2.13;;;11.00;99.90;;;;;;4998209;28;20058;-76
2023/05/16 03:17:21;;;;;;;19.67;2.40;;;11.10;99.90;;;;;;4998090;28;20351;-77
2023/05/16 03:19:47;;;;;;;11.90;1.48;;;11.10;99.90;;;;;;4997663;28;20325;-76
2023/05/16 03:22:12;;;;;;;16.42;2.28;;;11.20;99.90;;;;;;4997990;28;20046;-76
2023/05/16 03:24:38;;;;;;;18.02;2.28;;;11.10;99.90;;;;;;4980530;28;20046;-76
2023/05/16 03:27:04;;;;;;;16.13;1.58;;;11.20;99.90;;;;;;4997757;28;20053;-76
2023/05/16 03:29:30;;;;;;;14.77;2.22;;;11.10;99.90;;;;;;4997952;28;20047;-76
2023/05/16 03:31:56;;;;;;;16.73;2.00;;;11.20;99.90;;;;;;4997616;28;20038;-76
2023/05/16 03:34:22;;;;;;;17.40;1.90;;;11.20;99.90;;;;;;4997486;28;20380;-76
2023/05/16 03:36:48;;;;;;;23.92;2.17;;;11.20;99.90;;;;;;4997766;28;20040;-77
2023/05/16 03:39:15;;;;;;;10.88;1.67;;;11.10;99.90;;;;;;4997600;28;20420;-76
2023/05/16 03:41:41;;;;;;;12.15;1.92;;;11.00;99.90;;;;;;4980682;28;20117;-77
2023/05/16 03:44:07;;;;;;;13.10;1.50;;;11.00;99.90;;;;;;4997449;28;20070;-76
2023/05/16 03:46:34;;;;;;;14.88;1.80;;;11.00;99.90;;;;;;4997514;28;20073;-77
2023/05/16 03:49:00;;;;;;;13.70;1.60;;;10.90;99.90;;;;;;4979959;28;20058;-76
2023/05/16 03:51:26;;;;;;;15.65;2.22;;;10.80;99.90;;;;;;4997269;28;20129;-76
2023/05/16 03:53:53;;;;;;;16.17;2.70;;;10.80;99.90;;;;;;4997302;28;20181;-76
2023/05/16 03:56:18;;;;;;;10.90;1.60;;;10.70;99.90;;;;;;4997556;28;20034;-77
2023/05/16 03:58:44;;;;;;;15.15;2.08;;;10.70;99.90;;;;;;4997231;28;20042;-76
2023/05/16 04:01:10;;;;;;;17.45;1.98;;;10.60;99.90;;;;;;4997379;28;20046;-77
2023/05/16 04:03:37;;;;;;;17.52;2.55;;;10.50;99.90;;;;;;4980055;28;20046;-76
2023/05/16 04:06:03;;;;;;;18.58;2.17;;;10.50;99.90;;;;;;4997080;28;20057;-76
2023/05/16 04:08:29;;;;;;;19.10;2.53;;;10.50;99.90;;;;;;4980089;28;20113;-76
2023/05/16 04:10:55;;;;;;;12.70;1.70;;;10.50;99.90;;;;;;4997069;28;20455;-76
2023/05/16 04:13:21;;;;;;;18.25;1.90;;;10.80;99.90;;;;;;4979895;28;20053;-76
2023/05/16 04:15:47;;;;;;;12.23;1.70;;;10.90;99.90;;;;;;4963808;28;20112;-77
2023/05/16 04:18:12;;;;;;;17.98;2.30;;;10.90;99.90;;;;;;4996949;28;20042;-77
2023/05/16 04:20:38;;;;;;;17.25;2.05;;;11.00;99.90;;;;;;4996749;28;20181;-76
2023/05/16 04:23:04;;;;;;;6.68;1.20;;;11.00;99.90;;;;;;4996377;28;20043;-76
2023/05/16 04:25:30;;;;;;;12.77;2.03;;;10.90;99.90;;;;;;4979939;28;20100;-76
2023/05/16 04:27:56;;;;;;;13.68;1.35;;;10.80;99.90;;;;;;4996840;28;20458;-77
2023/05/16 04:30:21;;;;;;;12.60;1.38;;;10.80;99.90;;;;;;4997105;28;20042;-77
2023/05/16 04:32:47;;;;;;;6.63;1.25;;;10.70;99.90;;;;;;4996908;28;20494;-76
2023/05/16 04:35:13;;;;;;;10.07;1.58;;;10.70;99.90;;;;;;4980078;28;20064;-76
2023/05/16 04:37:38;;;;;;;11.25;1.83;;;10.80;99.90;;;;;;4996889;28;20339;-76
2023/05/16 04:40:06;;;;;;;16.65;2.42;;;10.60;99.90;;;;;;4997066;28;20499;-76
2023/05/16 04:42:32;;;;;;;13.93;2.00;;;10.60;99.90;;;;;;4979857;28;20416;-76
2023/05/16 04:44:58;;;;;;;12.45;2.45;;;10.70;99.90;;;;;;4996800;28;20093;-76
2023/05/16 04:47:23;;;;;;;13.38;1.95;;;10.40;99.90;;;;;;4996596;28;20458;-76
2023/05/16 04:49:49;;;;;;;13.75;2.60;;;10.50;99.90;;;;;;4962982;28;20065;-76
2023/05/16 04:52:15;;;;;;;22.58;2.05;;;10.50;99.90;;;;;;4996751;28;20424;-76
2023/05/16 04:54:41;;;;;;;14.63;2.17;;;10.60;99.90;;;;;;4996809;28;20380;-77
2023/05/16 04:57:06;;;;;;;13.50;1.90;;;10.70;99.90;;;;;;4996988;28;20046;-76
2023/05/16 04:59:32;;;;;;;11.60;1.70;;;10.70;99.90;;;;;;4979722;28;20050;-76
2023/05/16 05:01:58;;;;;;;10.82;2.00;;;10.70;99.90;;;;;;4996695;28;20042;-76
2023/05/16 05:04:24;;;;;;;21.45;1.92;;;10.80;99.90;;;;;;4996620;28;20074;-76
2023/05/16 05:06:49;;;;;;;12.88;2.38;;;10.90;99.90;;;;;;4996684;28;20383;-76
2023/05/16 05:09:16;;;;;;;12.75;1.73;;;10.90;99.90;;;;;;4996614;28;20364;-76
2023/05/16 05:11:41;;;;;;;14.30;2.15;;;11.00;99.90;;;;;;4996655;28;20042;-76
2023/05/16 05:14:07;;;;;;;12.52;2.15;;;10.80;99.90;;;;;;4996463;28;20499;-77
2023/05/16 05:16:33;;;;;;;12.07;1.63;;;10.60;99.90;;;;;;4979421;28;20133;-76
2023/05/16 05:18:59;;;;;;;11.23;1.80;;;10.60;99.90;;;;;;4963253;28;20080;-76
2023/05/16 05:21:25;;;;;;;17.58;2.20;;;10.50;99.90;;;;;;4996084;28;20046;-76
2023/05/16 05:23:51;;;;;;;14.65;2.05;;;10.60;99.90;;;;;;4996564;28;20049;-76
2023/05/16 05:26:17;;;;;;;12.68;1.63;;;10.60;99.90;;;;;;4996371;28;20046;-76
2023/05/16 05:28:42;;;;;;;7.63;1.40;;;10.60;99.90;;;;;;4995966;28;20050;-76
2023/05/16 05:31:08;;;;;;;21.83;2.35;;;10.60;99.90;;;;;;4996350;28;20046;-77
2023/05/16 05:33:34;;;;;;;12.80;1.90;;;10.60;99.90;;;;;;4996489;28;20041;-76
2023/05/16 05:35:59;;;;;;;15.38;1.95;;;10.80;99.90;;;;;;4981143;28;20065;-76
2023/05/16 05:38:25;;;;;;;10.88;1.90;;;11.00;99.90;;;;;;4999818;28;20065;-76
2023/05/16 05:40:51;;;;;;;15.25;1.67;;;11.00;99.90;;;;;;4999817;28;20042;-76
2023/05/16 05:43:17;;;;;;;15.57;2.05;;;11.10;99.90;;;;;;4999608;28;20046;-76
2023/05/16 05:45:43;;;;;;;15.68;2.00;;;11.30;99.90;;;;;;4999816;28;20113;-76
2023/05/16 05:48:09;;;;;;;14.30;1.67;;;11.30;99.90;;;;;;4999452;28;20038;-76
2023/05/16 05:50:36;;;;;;;14.70;1.67;;;11.30;99.90;;;;;;4998962;28;20054;-76
2023/05/16 05:53:01;;;;;;;20.02;2.13;;;11.40;99.90;;;;;;4999822;28;20038;-76
2023/05/16 05:55:27;;;;;;;14.32;1.90;;;11.60;99.90;;;;;;4982200;28;20053;-76
2023/05/16 05:57:52;;;;;;;12.63;1.95;;;11.50;99.90;;;;;;4999593;28;20046;-76
2023/05/16 06:00:18;;;;;;;14.50;1.60;;;11.80;99.90;;;;;;4999335;28;20046;-76
2023/05/16 06:02:44;;;;;;;10.38;1.60;;;11.70;99.90;;;;;;4999669;28;20062;-76
2023/05/16 06:05:10;;;;;;;11.68;1.42;;;11.80;99.90;;;;;;4999478;28;20034;-76
2023/05/16 06:07:35;;;;;;;16.52;2.28;;;11.90;99.90;;;;;;4981951;28;20047;-76
2023/05/16 06:10:04;;;;;;;14.55;1.83;;;12.00;99.90;;;;;;4999354;28;20034;-76
2023/05/16 06:12:30;;;;;;;16.48;1.80;;;12.20;99.90;;;;;;4999131;28;20359;-77
2023/05/16 06:14:55;;;;;;;12.30;1.42;;;12.30;99.90;;;;;;4999136;28;20089;-76
2023/05/16 06:17:21;;;;;;;16.58;2.00;;;12.20;99.90;;;;;;4999483;28;20038;-76
2023/05/16 06:19:47;;;;;;;14.30;1.40;;;12.30;99.90;;;;;;4998700;28;20059;-76
2023/05/16 06:22:13;;;;;;;7.65;0.80;;;12.30;99.90;;;;;;4981983;28;20061;-76
2023/05/16 06:24:39;;;;;;;11.63;1.10;;;12.20;99.90;;;;;;4999145;28;20125;-76
2023/05/16 06:27:06;;;;;;;7.35;1.02;;;12.30;99.90;;;;;;4998843;28;20129;-76
2023/05/16 06:29:31;;;;;;;12.07;1.25;;;12.40;99.90;;;;;;4998838;28;20038;-76
2023/05/16 06:31:57;;;;;;;10.27;1.30;;;12.50;99.90;;;;;;4999034;28;20041;-76
2023/05/16 06:34:26;;;;;;;12.27;1.10;;;12.40;99.90;;;;;;4999098;28;20387;-75
2023/05/16 06:36:55;;;;;;;13.10;1.33;;;12.50;99.90;;;;;;4981371;28;20046;-75
2023/05/16 06:39:21;;;;;;;15.73;1.10;;;12.40;99.90;;;;;;4998749;28;20039;-76
2023/05/16 06:41:47;;;;;;;8.48;1.13;;;12.40;99.90;;;;;;4998501;28;20327;-76
2023/05/16 06:44:12;;;;;;;10.40;1.20;;;12.10;99.90;;;;;;4998610;28;20038;-75
2023/05/16 06:46:38;;;;;;;7.30;1.23;;;11.90;99.90;;;;;;4980860;28;20046;-75
2023/05/16 06:49:04;;;;;;;7.13;0.95;;;11.90;99.90;;;;;;4998353;28;20089;-76
2023/05/16 06:51:30;;;;;;;12.02;1.20;;;12.00;99.90;;;;;;4981048;28;20133;-75
2023/05/16 06:53:56;;;;;;;6.85;0.90;;;12.10;99.90;;;;;;4998518;28;20053;-75
2023/05/16 06:56:22;;;;;;;16.10;1.90;;;12.20;99.90;;;;;;4998581;28;20092;-75
2023/05/16 06:58:48;;;;;;;8.57;1.00;;;12.30;99.90;;;;;;4998605;28;20046;-75
2023/05/16 07:01:14;;;;;;;12.05;1.52;;;12.50;99.90;;;;;;4998334;28;20045;-75
2023/05/16 07:03:40;;;;;;;10.70;1.50;;;12.50;99.90;;;;;;4998263;28;20046;-76
2023/05/16 07:06:06;;;;;;;11.15;1.10;;;12.70;99.90;;;;;;4980955;28;20042;-72
2023/05/16 07:08:32;;;;;;;4.45;1.00;;;12.70;99.90;;;;;;4997994;28;20060;-72
2023/05/16 07:10:57;;;;;;;5.38;0.88;;;12.60;99.90;;;;;;4998169;28;20041;-72
2023/05/16 07:13:23;;;;;;;11.05;1.20;;;12.40;99.90;;;;;;5002136;28;20305;-73
2023/05/16 07:15:49;;;;;;;6.13;1.00;;;12.40;99.90;;;;;;4998526;28;20058;-73
2023/05/16 07:18:15;;;;;;;10.32;1.17;;;12.50;99.90;;;;;;4997842;28;20431;-74
2023/05/16 07:20:40;;;;;;;11.98;1.25;;;12.70;99.90;;;;;;4980235;28;20050;-73
2023/05/16 07:23:06;;;;;;;11.93;1.08;;;12.80;99.90;;;;;;4997867;28;20046;-74
2023/05/16 07:25:32;;;;;;;10.23;1.20;;;12.80;99.90;;;;;;4997640;28;20046;-73
2023/05/16 07:27:58;;;;;;;12.63;1.40;;;12.80;99.90;;;;;;4997438;28;20126;-73
2023/05/16 07:30:24;;;;;;;13.98;1.60;;;12.90;99.90;;;;;;4997842;28;20046;-73
2023/05/16 07:32:50;;;;;;;9.63;1.17;;;13.00;99.90;;;;;;4997957;28;20030;-73
2023/05/16 07:35:15;;;;;;;12.07;1.30;;;12.80;99.90;;;;;;4997657;28;20117;-73
2023/05/16 07:37:42;;;;;;;10.07;1.23;;;12.60;99.90;;;;;;4980365;28;20038;-73
2023/05/16 07:40:09;;;;;;;6.85;0.75;;;12.70;99.90;;;;;;4997582;28;20057;-74
2023/05/16 07:42:34;;;;;;;9.35;1.40;;;12.60;99.90;;;;;;4997584;28;20347;-70
2023/05/16 07:45:00;;;;;;;14.23;1.27;;;12.60;99.90;;;;;;4997814;28;20050;-72
2023/05/16 07:47:27;;;;;;;10.95;1.52;;;12.70;99.90;;;;;;4997245;28;20050;-72
2023/05/16 07:49:52;;;;;;;7.50;1.42;;;12.80;99.90;;;;;;4995134;28;20055;-72
2023/05/16 07:52:19;;;;;;;10.73;1.20;;;12.80;99.90;;;;;;4996862;28;20043;-72
2023/05/16 07:54:46;;;;;;;8.27;1.02;;;12.80;99.90;;;;;;4979682;28;20038;-73
2023/05/16 07:57:14;;;;;;;11.77;1.70;;;12.80;99.90;;;;;;4997213;28;20049;-72
2023/05/16 07:59:39;;;;;;;15.73;1.40;;;13.10;99.90;;;;;;4996915;28;20046;-72
2023/05/16 08:02:05;;;;;;;13.60;1.30;;;13.30;99.90;;;;;;4980231;28;20129;-72
2023/05/16 08:04:31;;;;;;;12.48;1.50;;;13.40;99.90;;;;;;4997225;28;20443;-72
2023/05/16 08:06:57;;;;;;;6.63;0.88;;;13.50;99.90;;;;;;4997353;28;20038;-72
2023/05/16 08:09:22;;;;;;;11.20;1.10;;;13.50;99.90;;;;;;4997036;28;20124;-73
2023/05/16 08:11:48;;;;;;;13.13;1.38;;;13.60;99.90;;;;;;4979878;28;20120;-72
2023/05/16 08:14:14;;;;;;;15.13;1.60;;;13.30;99.90;;;;;;4997196;28;20060;-72
2023/05/16 08:16:40;;;;;;;9.20;1.63;;;13.00;99.90;;;;;;4997227;28;20034;-72
2023/05/16 08:19:06;;;;;;;8.07;1.38;;;12.80;99.90;;;;;;4987598;28;20467;-73
2023/05/16 08:21:31;;;;;;;7.72;1.30;;;13.00;99.90;;;;;;4976677;28;20038;-71
2023/05/16 08:23:58;;;;;;;10.70;1.20;;;13.30;99.90;;;;;;4982257;28;20108;-74
2023/05/16 08:26:24;;;;;;;13.50;1.35;;;13.60;99.90;;;;;;4992079;28;20107;-71
2023/05/16 08:28:49;;;;;;;6.68;0.70;;;13.50;99.90;;;;;;4996824;28;20050;-73
2023/05/16 08:31:15;;;;;;;5.43;0.57;;;13.10;99.90;;;;;;4996630;28;20118;-73
2023/05/16 08:33:41;;;;;;;8.93;1.10;;;12.80;99.90;;;;;;4979142;28;20459;-77
2023/05/16 08:36:08;;;;;;;8.55;0.88;;;12.50;99.90;;;;;;4991784;28;20039;-73
2023/05/16 08:38:34;;;;;;;9.48;1.05;;;12.60;99.90;;;;;;4989096;28;20035;-72
2023/05/16 08:41:00;;;;;;;14.02;1.13;;;12.80;99.90;;;;;;4992214;28;20042;-73
2023/05/16 08:43:25;;;;;;;11.93;1.00;;;13.10;99.90;;;;;;4985142;28;20122;-72
2023/05/16 08:45:51;;;;;;;7.65;0.82;;;13.30;99.90;;;;;;4996580;28;20325;-72
2023/05/16 08:48:21;;;;;;;4.90;0.88;;;13.40;99.90;;;;;;4988952;28;20030;-73
2023/05/16 08:50:47;;;;;;;12.82;1.02;;;13.70;99.90;;;;;;4993110;28;20054;-73
2023/05/16 08:53:16;;;;;;;12.95;2.20;;;13.80;99.90;;;;;;4991454;28;20058;-72
2023/05/16 08:55:44;;;;;;;12.73;1.35;;;13.90;99.90;;;;;;4996141;28;20042;-72
2023/05/16 08:58:11;;;;;;;10.43;1.30;;;13.70;99.90;;;;;;4995826;28;20108;-70
2023/05/16 09:00:37;;;;;;;5.53;0.98;;;13.50;99.90;;;;;;4996307;28;20435;-72
2023/05/16 09:03:04;;;;;;;11.98;1.88;;;13.20;99.90;;;;;;4996387;28;20440;-71
2023/05/16 09:05:30;;;;;;;15.15;1.60;;;12.90;99.90;;;;;;4995191;28;20053;-71
2023/05/16 09:07:56;;;;;;;10.00;1.15;;;13.10;99.90;;;;;;4996352;28;20042;-72
2023/05/16 09:10:22;;;;;;;8.93;1.15;;;13.50;99.90;;;;;;4999239;28;20057;-71
2023/05/16 09:12:48;;;;;;;19.13;2.05;;;13.40;99.90;;;;;;5000506;28;20045;-71
2023/05/16 09:15:13;;;;;;;11.30;1.63;;;13.50;99.90;;;;;;5000172;28;20042;-72
2023/05/16 09:17:45;;;;;;;17.05;1.35;;;13.90;99.90;;;;;;5000388;28;20074;-71
2023/05/16 09:20:14;;;;;;;12.38;1.58;;;13.90;99.90;;;;;;4999334;28;20042;-72
2023/05/16 09:22:52;;;;;;;12.98;1.33;;;13.70;99.90;;;;;;4982743;28;20050;-72
2023/05/16 09:25:19;;;;;;;9.85;1.13;;;13.70;99.90;;;;;;5000330;28;20125;-70
2023/05/16 09:27:47;;;;;;;13.32;1.10;;;13.90;99.90;;;;;;4999810;28;20105;-72
2023/05/16 09:30:15;;;;;;;13.38;1.20;;;13.90;99.90;;;;;;5000277;28;20108;-72
2023/05/16 09:32:44;;;;;;;12.25;1.65;;;13.80;99.90;;;;;;4999946;28;20038;-72
2023/05/16 09:35:15;;;;;;;13.48;1.20;;;13.80;99.90;;;;;;4999592;28;20034;-72
2023/05/16 09:37:48;;;;;;;9.32;1.50;;;14.20;99.90;;;;;;5000166;28;20038;-72
2023/05/16 09:40:14;;;;;;;10.95;1.98;;;14.50;99.90;;;;;;4999764;28;20105;-72
2023/05/16 09:42:42;;;;;;;11.15;1.10;;;14.50;99.90;;;;;;4999817;28;20038;-72
2023/05/16 09:45:14;;;;;;;11.82;1.05;;;14.20;99.90;;;;;;4999637;28;20101;-72
2023/05/16 09:47:45;;;;;;;8.10;0.90;;;13.80;99.90;;;;;;4999224;28;20446;-73
2023/05/16 09:50:14;;;;;;;15.63;1.13;;;13.80;99.90;;;;;;4998977;28;20105;-72
2023/05/16 09:52:41;;;;;;;11.38;1.35;;;13.90;99.90;;;;;;4999764;28;20046;-72
2023/05/16 09:55:08;;;;;;;16.73;1.23;;;14.00;99.90;;;;;;4999677;28;20038;-72
2023/05/16 09:57:38;;;;;;;6.50;1.17;;;14.40;99.90;;;;;;4999370;28;20042;-72
2023/05/16 10:00:09;;;;;;;9.57;1.10;;;14.90;99.90;;;;;;4998994;28;20046;-73
2023/05/16 10:02:38;;;;;;;11.77;1.42;;;15.00;99.90;;;;;;4999026;28;20046;-72
2023/05/16 10:05:05;;;;;;;10.45;1.10;;;15.30;99.90;;;;;;4999453;28;20121;-72
2023/05/16 10:07:32;;;;;;;12.63;1.55;;;15.20;99.90;;;;;;4999289;28;20038;-72
2023/05/16 10:10:04;;;;;;;10.57;1.80;;;15.00;99.90;;;;;;4999091;28;20042;-73
2023/05/16 10:12:30;;;;;;;10.82;1.10;;;14.80;99.90;;;;;;4999239;28;20043;-73
2023/05/16 10:14:56;;;;;;;8.05;0.85;;;14.50;99.90;;;;;;4999166;28;20101;-72
2023/05/16 10:17:26;;;;;;;12.05;1.38;;;14.50;99.90;;;;;;4999321;28;20074;-72
2023/05/16 10:19:53;;;;;;;9.82;1.13;;;14.80;99.90;;;;;;4998564;28;20042;-72
2023/05/16 10:22:20;;;;;;;12.63;1.20;;;14.90;99.90;;;;;;4998399;28;20096;-72
2023/05/16 10:25:06;;;;;;;10.35;1.10;;;14.90;99.90;;;;;;4998808;28;20042;-72
2023/05/16 10:27:32;;;;;;;12.70;1.57;;;14.40;99.90;;;;;;4999224;28;20116;-72
2023/05/16 10:29:59;;;;;;;9.13;1.48;;;14.40;99.90;;;;;;4999015;28;20456;-72
2023/05/16 10:32:26;;;;;;;9.27;1.15;;;14.10;99.90;;;;;;4997790;28;20042;-72
2023/05/16 10:34:54;;;;;;;10.63;1.02;;;14.00;99.90;;;;;;4998759;28;20046;-71
2023/05/16 10:37:20;;;;;;;12.02;1.67;;;14.40;99.90;;;;;;4981707;28;20054;-71
2023/05/16 10:39:46;;;;;;;13.02;1.25;;;14.80;99.90;;;;;;4998754;28;20057;-71
2023/05/16 10:42:16;;;;;;;13.57;1.58;;;15.40;99.90;;;;;;4998769;28;20045;-70
2023/05/16 10:44:42;;;;;;;9.60;0.95;;;15.30;99.90;;;;;;4998836;28;20039;-70
2023/05/16 10:47:08;;;;;;;9.40;1.10;;;15.40;99.90;;;;;;4998864;28;20043;-70
2023/05/16 10:49:34;;;;;;;7.47;0.90;;;15.70;99.90;;;;;;4997984;28;20060;-74
2023/05/16 10:52:10;;;;;;;6.50;0.85;;;15.90;99.90;;;;;;4997681;28;20049;-72
2023/05/16 10:54:51;;;;;;;9.20;1.20;;;16.30;99.90;;;;;;4998072;28;20085;-70
2023/05/16 10:57:22;;;;;;;7.93;1.00;;;16.50;99.90;;;;;;4998319;28;20074;-69
2023/05/16 10:59:50;;;;;;;14.45;1.10;;;16.30;99.90;;;;;;4998570;28;20038;-68
2023/05/16 11:02:28;;;;;;;12.15;1.20;;;16.10;99.90;;;;;;4997896;28;20034;-69
2023/05/16 11:04:58;;;;;;;8.45;1.27;;;16.00;99.90;;;;;;4997774;28;20034;-70
2023/05/16 11:07:29;;;;;;;6.97;0.80;;;16.00;99.90;;;;;;4997925;28;20096;-69
2023/05/16 11:10:15;;;;;;;11.20;1.05;;;16.00;99.90;;;;;;4999607;28;20105;-69
2023/05/16 11:12:46;;;;;;;8.57;1.13;;;15.50;99.90;;;;;;4985257;28;20034;-68
2023/05/16 11:15:30;;;;;;;9.77;1.48;;;15.00;99.90;;;;;;4997945;28;20030;-69
2023/05/16 11:18:05;;;;;;;9.48;1.10;;;15.00;99.90;;;;;;4997890;28;20367;-68
2023/05/16 11:20:36;;;;;;;8.32;1.00;;;15.60;99.90;;;;;;4997544;28;20428;-68
2023/05/16 11:23:22;;;;;;;8.65;1.20;;;16.00;99.90;;;;;;4998028;28;20377;-67
2023/05/16 11:25:53;;;;;;;5.53;0.93;;;16.10;99.90;;;;;;4997922;28;20335;-68
2023/05/16 11:28:19;;;;;;;17.65;1.67;;;16.30;99.90;;;;;;4998044;28;20046;-68
2023/05/16 11:30:51;;;;;;;9.35;1.40;;;16.00;99.90;;;;;;4997727;28;20053;-68
2023/05/16 11:33:17;;;;;;;10.93;1.40;;;15.70;99.90;;;;;;4997929;28;20084;-69
2023/05/16 11:35:58;;;;;;;11.85;1.67;;;15.50;99.90;;;;;;4997566;28;20096;-69
2023/05/16 11:38:24;;;;;;;7.50;1.20;;;15.40;99.90;;;;;;4997772;28;20077;-70
2023/05/16 11:40:49;;;;;;;6.05;1.23;;;15.20;99.90;;;;;;4997906;28;20084;-68
2023/05/16 11:43:18;;;;;;;4.80;1.10;;;15.30;99.90;;;;;;4997650;28;20309;-68
2023/05/16 11:45:44;;;;;;;7.47;1.20;;;15.20;99.90;;;;;;4997608;28;20050;-70
2023/05/16 11:48:10;;;;;;;7.35;1.70;;;14.90;99.90;;;;;;4997429;28;20038;-69
2023/05/16 11:50:36;;;;;;;6.95;1.40;;;14.70;99.90;;;;;;4996828;28;20050;-69
2023/05/16 11:53:02;;;;;;;10.35;1.70;;;14.70;99.90;;;;;;4997608;28;20061;-69
2023/05/16 11:55:29;;;;;;;13.93;1.73;;;15.00;99.90;;;;;;4997452;28;20038;-69
2023/05/16 11:57:56;;;;;;;7.93;1.70;;;15.60;99.90;;;;;;4997285;28;20068;-69
2023/05/16 12:00:25;;;;;;;8.35;1.75;;;15.80;99.90;;;;;;4997179;28;20443;-68
2023/05/16 12:02:51;;;;;;;12.27;1.50;;;15.80;99.90;;;;;;4997522;28;20050;-69
2023/05/16 12:05:19;;;;;;;9.00;2.10;;;15.70;99.90;;;;;;4997235;28;20173;-69
2023/05/16 12:07:46;;;;;;;8.98;1.55;;;15.90;99.90;;;;;;4997396;28;20046;-69
2023/05/16 12:10:14;;;;;;;9.82;1.90;;;16.20;99.90;;;;;;4997104;28;20034;-69
2023/05/16 12:12:43;;;;;;;16.63;2.20;;;16.40;99.90;;;;;;4997406;28;20043;-69
2023/05/16 12:15:10;;;;;;;10.40;2.13;;;16.60;99.90;;;;;;4997202;28;20127;-69
2023/05/16 12:17:38;;;;;;;8.85;1.85;;;16.70;99.90;;;;;;4996964;28;20061;-70
2023/05/16 12:20:05;;;;;;;7.80;1.58;;;16.80;99.90;;;;;;4996651;28;20439;-69
2023/05/16 12:22:32;;;;;;;7.22;1.65;;;16.60;99.90;;;;;;4997154;28;20070;-69
2023/05/16 12:25:30;;;;;;;13.23;2.10;;;16.40;99.90;;;;;;4997216;28;20048;-68
2023/05/16 12:27:57;;;;;;;8.48;2.03;;;16.00;99.90;;;;;;4979801;28;20053;-69
2023/05/16 12:30:25;;;;;;;7.68;1.38;;;15.90;99.90;;;;;;4997076;28;20332;-70
2023/05/16 12:32:58;;;;;;;8.50;1.80;;;15.70;99.90;;;;;;4996860;28;20042;-70
2023/05/16 12:35:25;;;;;;;12.68;1.90;;;15.80;99.90;;;;;;4996922;28;20042;-69
2023/05/16 12:37:51;;;;;;;13.90;2.22;;;15.70;99.90;;;;;;4996989;28;20085;-68
2023/05/16 12:40:19;;;;;;;11.88;2.10;;;16.10;99.90;;;;;;4996721;28;20119;-68